createdAt,value
2022-10-26T00:02:06.005Z,100.00
2022-10-26T00:07:08.461Z,100.00
2022-10-26T00:12:10.675Z,100.00
2022-10-26T00:17:12.701Z,100.00
2022-10-26T00:22:14.873Z,100.00
2022-10-26T00:27:17.151Z,100.00
2022-10-26T00:32:19.644Z,100.00
2022-10-26T00:37:21.688Z,100.00
2022-10-26T00:42:24.722Z,100.00
2022-10-26T00:47:47.337Z,100.00
2022-10-26T00:52:51.398Z,100.00
2022-10-26T00:57:54.518Z,100.00
2022-10-26T01:03:00.330Z,100.00
2022-10-26T01:08:03.750Z,100.00
2022-10-26T01:13:06.953Z,100.00
2022-10-26T01:18:29.488Z,100.00
2022-10-26T01:23:38.504Z,100.00
2022-10-26T01:29:18.018Z,100.00
2022-10-26T01:34:55.695Z,100.00
2022-10-26T01:40:09.701Z,100.00
2022-10-26T01:45:15.166Z,99.34
2022-10-26T01:50:20.077Z,98.11
2022-10-26T01:55:51.692Z,95.32
2022-10-26T02:01:06.302Z,93.09
2022-10-26T02:06:21.974Z,89.42
2022-10-26T02:11:43.147Z,84.61
2022-10-26T02:17:11.064Z,81.53
2022-10-26T02:22:27.896Z,80.30
2022-10-26T02:27:34.838Z,78.75
2022-10-26T02:32:44.265Z,78.04
2022-10-26T02:37:48.996Z,77.88
2022-10-26T02:42:53.393Z,78.12
2022-10-26T02:47:56.434Z,77.87
2022-10-26T02:53:03.641Z,78.55
2022-10-26T02:58:12.512Z,79.12
2022-10-26T03:03:15.759Z,79.80
2022-10-26T03:08:18.024Z,79.94
2022-10-26T03:13:20.333Z,80.32
2022-10-26T03:18:22.425Z,80.70
2022-10-26T03:23:24.516Z,83.35
2022-10-26T03:28:26.904Z,85.87
2022-10-26T03:33:29.273Z,89.93
2022-10-26T03:38:31.392Z,92.80
2022-10-26T03:43:33.444Z,95.13
2022-10-26T03:48:35.458Z,97.33
2022-10-26T03:53:37.643Z,96.91
2022-10-26T03:58:39.868Z,99.99
2022-10-26T04:03:42.087Z,100.00
2022-10-26T04:08:44.160Z,100.00
2022-10-26T04:13:48.220Z,100.00
2022-10-26T04:18:50.398Z,100.00
2022-10-26T04:23:52.572Z,100.00
2022-10-26T04:28:54.773Z,100.00
2022-10-26T04:33:56.934Z,100.00
2022-10-26T04:38:59.050Z,100.00
2022-10-26T04:44:01.313Z,100.00
2022-10-26T04:49:03.509Z,100.00
2022-10-26T04:54:05.605Z,100.00
2022-10-26T04:59:07.643Z,100.00
2022-10-26T05:04:09.902Z,100.00
2022-10-26T05:09:11.937Z,100.00
2022-10-26T05:14:14.906Z,100.00
2022-10-26T05:19:17.285Z,100.00
2022-10-26T05:24:19.964Z,100.00
2022-10-26T05:29:22.046Z,100.00
2022-10-26T05:34:24.069Z,100.00
2022-10-26T05:39:26.244Z,100.00
2022-10-26T05:44:28.322Z,100.00
2022-10-26T05:49:30.370Z,100.00
2022-10-26T05:54:32.561Z,100.00
2022-10-26T05:59:35.193Z,100.00
2022-10-26T06:04:43.493Z,100.00
2022-10-26T06:09:46.421Z,100.00
2022-10-26T06:14:49.054Z,100.00
2022-10-26T06:20:19.161Z,100.00
2022-10-26T06:25:45.917Z,99.62
2022-10-26T06:30:48.324Z,94.80
2022-10-26T06:36:08.812Z,77.00
2022-10-26T06:41:19.126Z,44.60
2022-10-26T06:46:44.261Z,33.03
2022-10-26T06:52:04.615Z,29.09
2022-10-26T06:57:09.208Z,29.28
2022-10-26T07:02:17.625Z,28.71
2022-10-26T07:07:29.499Z,27.98
2022-10-26T07:12:33.007Z,33.32
2022-10-26T07:17:49.481Z,35.10
2022-10-26T07:22:56.340Z,34.32
2022-10-26T07:27:59.683Z,35.92
2022-10-26T07:33:12.938Z,39.87
2022-10-26T07:38:15.226Z,39.40
2022-10-26T07:43:17.469Z,42.10
2022-10-26T07:48:19.851Z,38.08
2022-10-26T07:53:27.520Z,39.17
2022-10-26T07:58:30.571Z,36.71
2022-10-26T08:03:32.594Z,34.30
2022-10-26T08:08:34.966Z,33.47
2022-10-26T08:13:37.171Z,32.29
2022-10-26T08:18:39.390Z,31.39
2022-10-26T08:23:41.798Z,30.93
2022-10-26T08:28:43.809Z,31.62
2022-10-26T08:33:46.108Z,31.90
2022-10-26T08:38:49.194Z,30.45
2022-10-26T08:43:59.160Z,30.73
2022-10-26T08:49:19.528Z,29.96
2022-10-26T08:54:45.338Z,31.04
2022-10-26T08:59:54.712Z,30.76
2022-10-26T09:05:02.379Z,29.80
2022-10-26T09:10:41.015Z,30.95
2022-10-26T09:16:12.342Z,29.95
2022-10-26T09:21:23.663Z,28.78
2022-10-26T09:26:34.830Z,30.39
2022-10-26T09:31:43.495Z,30.47
2022-10-26T09:36:46.239Z,29.73
2022-10-26T09:42:02.213Z,29.60
2022-10-26T09:47:22.184Z,28.62
2022-10-26T09:52:24.470Z,28.89
2022-10-26T09:57:26.969Z,28.79
2022-10-26T10:02:45.196Z,28.18
2022-10-26T10:07:47.678Z,28.34
2022-10-26T10:12:52.821Z,28.72
2022-10-26T10:17:58.622Z,29.27
2022-10-26T10:23:04.007Z,29.97
2022-10-26T10:28:27.920Z,29.33
2022-10-26T10:33:36.433Z,28.93
2022-10-26T10:38:44.921Z,29.86
2022-10-26T10:43:50.485Z,29.44
2022-10-26T10:49:02.110Z,30.80
2022-10-26T10:54:06.155Z,30.91
2022-10-26T10:59:26.651Z,31.92
2022-10-26T11:04:39.708Z,33.25
2022-10-26T11:09:46.419Z,32.57
2022-10-26T11:14:55.884Z,31.99
2022-10-26T11:20:03.049Z,33.45
2022-10-26T11:25:47.934Z,34.43
2022-10-26T11:30:57.937Z,34.51
2022-10-26T11:36:10.195Z,34.40
2022-10-26T11:41:22.876Z,34.08
2022-10-26T11:46:32.814Z,32.81
2022-10-26T11:51:56.209Z,33.05
2022-10-26T11:57:00.008Z,32.61
2022-10-26T12:02:06.538Z,33.44
2022-10-26T12:07:16.505Z,33.49
2022-10-26T12:12:51.041Z,33.70
2022-10-26T12:18:00.329Z,34.51
2022-10-26T12:23:04.576Z,34.05
2022-10-26T12:28:35.550Z,34.20
2022-10-26T12:33:50.514Z,33.68
2022-10-26T12:38:57.849Z,34.32
2022-10-26T12:44:24.070Z,34.01
2022-10-26T12:50:05.322Z,35.23
2022-10-26T12:55:32.379Z,34.92
2022-10-26T13:00:41.764Z,35.13
2022-10-26T13:06:11.847Z,35.57
2022-10-26T13:11:21.443Z,34.92
2022-10-26T13:16:26.163Z,34.90
2022-10-26T13:21:28.683Z,35.27
2022-10-26T13:26:32.811Z,35.28
2022-10-26T13:31:36.560Z,35.42
2022-10-26T13:36:44.318Z,35.38
2022-10-26T13:41:49.558Z,35.36
2022-10-26T13:46:57.089Z,35.18
2022-10-26T13:52:03.673Z,35.13
2022-10-26T13:57:31.840Z,35.63
2022-10-26T14:02:34.151Z,35.50
2022-10-26T14:07:50.377Z,34.80
2022-10-26T14:12:55.366Z,34.54
2022-10-26T14:18:00.331Z,35.25
2022-10-26T14:23:02.649Z,35.22
2022-10-26T14:28:21.734Z,35.93
2022-10-26T14:33:29.172Z,36.70
2022-10-26T14:38:41.947Z,37.74
2022-10-26T14:43:46.028Z,44.81
2022-10-26T14:48:59.722Z,44.27
2022-10-26T14:54:04.151Z,51.54
2022-10-26T14:59:26.155Z,52.07
2022-10-26T15:04:30.317Z,56.58
2022-10-26T15:09:43.886Z,49.82
2022-10-26T15:14:50.473Z,51.35
2022-10-26T15:19:53.826Z,51.93
2022-10-26T15:24:58.813Z,61.03
2022-10-26T15:30:24.670Z,63.06
2022-10-26T15:35:31.551Z,62.26
2022-10-26T15:40:34.070Z,64.16
2022-10-26T15:45:45.915Z,69.50
2022-10-26T15:50:48.063Z,85.65
2022-10-26T15:55:53.044Z,78.46
2022-10-26T16:00:55.315Z,75.41
2022-10-26T16:06:00.938Z,84.48
2022-10-26T16:11:03.010Z,84.18
2022-10-26T16:16:05.516Z,69.89
2022-10-26T16:21:14.584Z,67.13
2022-10-26T16:26:17.199Z,67.96
2022-10-26T16:31:21.274Z,67.71
2022-10-26T16:36:23.445Z,68.97
2022-10-26T16:46:28.006Z,69.90
2022-10-26T16:51:30.399Z,72.40
2022-10-26T16:56:32.457Z,72.79
2022-10-26T17:01:36.005Z,73.83
2022-10-26T17:06:42.065Z,72.67
2022-10-26T17:11:47.326Z,73.34
2022-10-26T17:16:49.580Z,76.31
2022-10-26T17:21:54.400Z,75.78
2022-10-26T17:26:56.901Z,76.79
2022-10-26T17:31:59.137Z,77.25
2022-10-26T17:37:01.305Z,78.24
2022-10-26T17:42:03.973Z,79.90
2022-10-26T17:47:06.187Z,81.12
2022-10-26T17:52:08.292Z,81.09
2022-10-26T17:57:10.685Z,81.09
2022-10-26T18:02:12.881Z,81.76
2022-10-26T18:07:15.250Z,83.27
2022-10-26T18:12:17.646Z,83.95
2022-10-26T18:17:19.834Z,84.63
2022-10-26T18:22:21.987Z,86.04
2022-10-26T18:27:24.190Z,87.09
2022-10-26T18:32:26.384Z,89.01
2022-10-26T18:37:28.424Z,90.56
2022-10-26T18:42:30.528Z,90.59
2022-10-26T18:47:33.517Z,89.26
2022-10-26T18:52:35.735Z,88.69
2022-10-26T18:57:37.833Z,88.68
2022-10-26T19:02:39.846Z,89.14
2022-10-26T19:07:42.170Z,89.31
2022-10-26T19:12:44.248Z,90.45
2022-10-26T19:17:46.261Z,91.90
2022-10-26T19:22:49.044Z,92.18
2022-10-26T19:27:52.666Z,92.05
2022-10-26T19:32:54.948Z,93.32
2022-10-26T19:37:57.084Z,93.65
2022-10-26T19:42:59.261Z,93.60
2022-10-26T19:48:01.385Z,93.20
2022-10-26T19:53:03.641Z,92.68
2022-10-26T19:58:05.833Z,92.97
2022-10-26T20:03:11.065Z,93.59
2022-10-26T20:08:17.006Z,96.28
2022-10-26T20:13:32.719Z,96.86
2022-10-26T20:18:35.982Z,97.55
2022-10-26T20:23:38.358Z,98.76
2022-10-26T20:39:37.528Z,99.58
2022-10-26T20:44:43.650Z,100.00
2022-10-26T20:49:46.281Z,100.00
2022-10-26T20:55:08.903Z,100.00
2022-10-26T21:00:12.237Z,100.00
2022-10-26T21:05:14.844Z,100.00
2022-10-26T21:10:16.924Z,100.00
2022-10-26T21:15:19.014Z,100.00
2022-10-26T21:20:21.209Z,100.00
2022-10-26T21:25:23.422Z,100.00
2022-10-26T21:30:26.245Z,100.00
2022-10-26T21:35:28.446Z,100.00
2022-10-26T21:40:30.866Z,100.00
2022-10-26T21:45:33.185Z,100.00
2022-10-26T21:50:35.563Z,100.00
2022-10-26T21:55:37.668Z,100.00
2022-10-26T22:00:40.029Z,100.00
2022-10-26T22:05:45.086Z,100.00
2022-10-26T22:10:48.258Z,100.00
2022-10-26T22:16:01.192Z,100.00
2022-10-26T22:21:04.475Z,100.00
2022-10-26T22:26:10.573Z,100.00
2022-10-26T22:31:16.406Z,100.00
2022-10-26T22:36:18.925Z,100.00
2022-10-26T22:41:22.776Z,100.00
2022-10-26T22:46:28.423Z,100.00
2022-10-26T22:51:33.553Z,100.00
2022-10-26T22:56:36.767Z,100.00
2022-10-26T23:01:41.102Z,100.00
2022-10-26T23:06:43.518Z,100.00
2022-10-26T23:11:45.593Z,100.00
2022-10-26T23:16:47.650Z,100.00
2022-10-26T23:21:49.860Z,100.00
2022-10-26T23:26:51.977Z,100.00
2022-10-26T23:31:54.006Z,100.00
2022-10-26T23:36:56.250Z,100.00
2022-10-26T23:41:58.464Z,100.00
2022-10-26T23:47:00.518Z,100.00
2022-10-26T23:52:02.801Z,100.00
2022-10-26T23:57:05.003Z,100.00
